sensor_id;sensor_type;location;lat;lon;timestamp;pressure;altitude;pressure_sealevel;temperature;humidity
68320;BME280;55168;51.120;17.024;2022-07-29T00:00:00;100400;;;17.3;52.7
68320;BME280;55168;51.120;17.024;2022-07-29T00:01:00;100400;;;17.3;53.0
68320;BME280;55168;51.120;17.024;2022-07-29T00:02:00;100400;;;17.3;52.9
68320;BME280;55168;51.120;17.024;2022-07-29T00:03:00;100390;;;17.3;52.9
68320;BME280;55168;51.120;17.024;2022-07-29T00:04:00;100400;;;17.3;53.1
68320;BME280;55168;51.120;17.024;2022-07-29T00:05:00;100400;;;17.3;53.2
68320;BME280;55168;51.120;17.024;2022-07-29T00:06:00;100400;;;17.3;53.1
68320;BME280;55168;51.120;17.024;2022-07-29T00:07:00;100400;;;17.2;53.4
68320;BME280;55168;51.120;17.024;2022-07-29T00:08:00;100400;;;17.2;53.3
68320;BME280;55168;51.120;17.024;2022-07-29T00:09:00;100400;;;17.2;53.5
68320;BME280;55168;51.120;17.024;2022-07-29T00:10:00;100410;;;17.2;53.6
68320;BME280;55168;51.120;17.024;2022-07-29T00:11:00;100400;;;17.2;54.0
68320;BME280;55168;51.120;17.024;2022-07-29T00:12:00;100400;;;17.2;53.9
68320;BME280;55168;51.120;17.024;2022-07-29T00:13:00;100400;;;17.1;54.1
68320;BME280;55168;51.120;17.024;2022-07-29T00:14:00;100400;;;17.1;54.3
68320;BME280;55168;51.120;17.024;2022-07-29T00:15:00;100400;;;17.1;54.2
68320;BME280;55168;51.120;17.024;2022-07-29T00:16:00;100400;;;17.1;54.6
68320;BME280;55168;51.120;17.024;2022-07-29T00:17:00;100400;;;17.0;54.9
68320;BME280;55168;51.120;17.024;2022-07-29T00:18:00;100400;;;17.0;54.8
68320;BME280;55168;51.120;17.024;2022-07-29T00:19:00;100400;;;17.0;55.5
68320;BME280;55168;51.120;17.024;2022-07-29T00:20:00;100390;;;17.0;55.0
68320;BME280;55168;51.120;17.024;2022-07-29T00:21:00;100410;;;17.0;55.2
68320;BME280;55168;51.120;17.024;2022-07-29T00:22:00;100410;;;17.0;55.2
68320;BME280;55168;51.120;17.024;2022-07-29T00:23:00;100410;;;17.0;56.2
68320;BME280;55168;51.120;17.024;2022-07-29T00:24:00;100410;;;17.0;56.1
68320;BME280;55168;51.120;17.024;2022-07-29T00:25:00;100400;;;16.9;55.9
68320;BME280;55168;51.120;17.024;2022-07-29T00:26:00;100410;;;16.9;56.2
68320;BME280;55168;51.120;17.024;2022-07-29T00:27:00;100410;;;16.9;56.4
68320;BME280;55168;51.120;17.024;2022-07-29T00:28:00;100410;;;16.8;56.3
68320;BME280;55168;51.120;17.024;2022-07-29T00:29:00;100410;;;16.8;56.6
68320;BME280;55168;51.120;17.024;2022-07-29T00:30:00;100410;;;16.8;56.5
68320;BME280;55168;51.120;17.024;2022-07-29T00:31:00;100400;;;16.8;56.7
68320;BME280;55168;51.120;17.024;2022-07-29T00:32:00;100400;;;16.7;57.0
68320;BME280;55168;51.120;17.024;2022-07-29T00:33:00;100400;;;16.7;57.0
68320;BME280;55168;51.120;17.024;2022-07-29T00:34:00;100400;;;16.7;57.1
68320;BME280;55168;51.120;17.024;2022-07-29T00:35:00;100400;;;16.7;57.4
68320;BME280;55168;51.120;17.024;2022-07-29T00:36:00;100410;;;16.7;57.2
68320;BME280;55168;51.120;17.024;2022-07-29T00:37:00;100400;;;16.7;57.5
68320;BME280;55168;51.120;17.024;2022-07-29T00:38:00;100400;;;16.7;57.6
68320;BME280;55168;51.120;17.024;2022-07-29T00:39:00;100400;;;16.6;57.6
68320;BME280;55168;51.120;17.024;2022-07-29T00:40:00;100390;;;16.6;57.5
68320;BME280;55168;51.120;17.024;2022-07-29T00:41:00;100390;;;16.6;58.1
68320;BME280;55168;51.120;17.024;2022-07-29T00:42:01;100390;;;16.5;57.8
68320;BME280;55168;51.120;17.024;2022-07-29T00:43:00;100390;;;16.5;58.1
68320;BME280;55168;51.120;17.024;2022-07-29T00:44:00;100390;;;16.5;58.3
68320;BME280;55168;51.120;17.024;2022-07-29T00:45:00;100390;;;16.4;58.5
68320;BME280;55168;51.120;17.024;2022-07-29T00:46:00;100390;;;16.4;58.6
68320;BME280;55168;51.120;17.024;2022-07-29T00:47:00;100390;;;16.4;58.7
68320;BME280;55168;51.120;17.024;2022-07-29T00:48:00;100380;;;16.4;58.9
68320;BME280;55168;51.120;17.024;2022-07-29T00:49:00;100390;;;16.4;58.9
68320;BME280;55168;51.120;17.024;2022-07-29T00:50:00;100390;;;16.4;59.0
68320;BME280;55168;51.120;17.024;2022-07-29T00:51:01;100380;;;16.4;59.2
68320;BME280;55168;51.120;17.024;2022-07-29T00:52:00;100390;;;16.4;59.3
68320;BME280;55168;51.120;17.024;2022-07-29T00:53:00;100390;;;16.3;59.4
68320;BME280;55168;51.120;17.024;2022-07-29T00:54:00;100390;;;16.3;59.5
68320;BME280;55168;51.120;17.024;2022-07-29T00:55:00;100390;;;16.3;59.5
68320;BME280;55168;51.120;17.024;2022-07-29T00:56:00;100390;;;16.3;59.9
68320;BME280;55168;51.120;17.024;2022-07-29T00:57:00;100380;;;16.3;59.5
68320;BME280;55168;51.120;17.024;2022-07-29T00:58:00;100390;;;16.3;59.6
68320;BME280;55168;51.120;17.024;2022-07-29T00:59:00;100390;;;16.3;59.6
68320;BME280;55168;51.120;17.024;2022-07-29T01:00:00;100380;;;16.3;60.1
68320;BME280;55168;51.120;17.024;2022-07-29T01:01:00;100390;;;16.3;59.9
68320;BME280;55168;51.120;17.024;2022-07-29T01:02:00;100390;;;16.3;59.6
68320;BME280;55168;51.120;17.024;2022-07-29T01:03:00;100390;;;16.3;59.9
68320;BME280;55168;51.120;17.024;2022-07-29T01:04:00;100390;;;16.3;60.2
68320;BME280;55168;51.120;17.024;2022-07-29T01:05:00;100390;;;16.3;60.0
68320;BME280;55168;51.120;17.024;2022-07-29T01:06:00;100390;;;16.2;60.4
68320;BME280;55168;51.120;17.024;2022-07-29T01:07:00;100390;;;16.2;60.3
68320;BME280;55168;51.120;17.024;2022-07-29T01:08:00;100390;;;16.2;60.4
68320;BME280;55168;51.120;17.024;2022-07-29T01:09:00;100390;;;16.2;60.9
68320;BME280;55168;51.120;17.024;2022-07-29T01:10:00;100390;;;16.2;60.6
68320;BME280;55168;51.120;17.024;2022-07-29T01:11:00;100390;;;16.1;60.9
68320;BME280;55168;51.120;17.024;2022-07-29T01:12:00;100390;;;16.1;60.8
68320;BME280;55168;51.120;17.024;2022-07-29T01:13:00;100390;;;16.1;61.0
68320;BME280;55168;51.120;17.024;2022-07-29T01:14:00;100390;;;16.1;61.2
68320;BME280;55168;51.120;17.024;2022-07-29T01:15:00;100390;;;16.1;61.3
68320;BME280;55168;51.120;17.024;2022-07-29T01:16:03;100390;;;16.1;61.4
68320;BME280;55168;51.120;17.024;2022-07-29T01:17:02;100390;;;16.0;61.5
68320;BME280;55168;51.120;17.024;2022-07-29T01:18:09;100390;;;16.0;61.7
68320;BME280;55168;51.120;17.024;2022-07-29T01:19:06;100390;;;16.0;61.6
68320;BME280;55168;51.120;17.024;2022-07-29T01:21:07;100390;;;16.0;62.0
68320;BME280;55168;51.120;17.024;2022-07-29T01:22:01;100390;;;16.0;61.8
68320;BME280;55168;51.120;17.024;2022-07-29T01:23:21;100390;;;16.0;61.7
68320;BME280;55168;51.120;17.024;2022-07-29T01:26:04;100390;;;16.0;62.3
68320;BME280;55168;51.120;17.024;2022-07-29T01:29:09;100380;;;15.9;62.7
68320;BME280;55168;51.120;17.024;2022-07-29T01:30:00;100380;;;15.9;63.0
68320;BME280;55168;51.120;17.024;2022-07-29T01:31:00;100380;;;15.9;63.0
68320;BME280;55168;51.120;17.024;2022-07-29T01:32:04;100380;;;15.9;63.3
68320;BME280;55168;51.120;17.024;2022-07-29T01:33:02;100380;;;15.9;63.2
68320;BME280;55168;51.120;17.024;2022-07-29T01:34:01;100380;;;15.8;63.4
68320;BME280;55168;51.120;17.024;2022-07-29T01:36:01;100380;;;15.8;63.5
68320;BME280;55168;51.120;17.024;2022-07-29T01:37:04;100380;;;15.8;63.4
68320;BME280;55168;51.120;17.024;2022-07-29T01:38:01;100380;;;15.8;63.4
68320;BME280;55168;51.120;17.024;2022-07-29T01:39:05;100380;;;15.8;63.6
68320;BME280;55168;51.120;17.024;2022-07-29T01:40:00;100370;;;15.8;63.8
68320;BME280;55168;51.120;17.024;2022-07-29T01:41:02;100370;;;15.8;64.0
68320;BME280;55168;51.120;17.024;2022-07-29T01:42:19;100380;;;15.8;63.4
68320;BME280;55168;51.120;17.024;2022-07-29T01:43:00;100380;;;15.8;63.9
68320;BME280;55168;51.120;17.024;2022-07-29T01:44:02;100380;;;15.8;63.9
68320;BME280;55168;51.120;17.024;2022-07-29T01:45:12;100380;;;15.8;64.0
68320;BME280;55168;51.120;17.024;2022-07-29T01:46:01;100380;;;15.8;64.3
68320;BME280;55168;51.120;17.024;2022-07-29T01:47:01;100380;;;15.8;64.3
68320;BME280;55168;51.120;17.024;2022-07-29T01:48:00;100370;;;15.8;64.9
68320;BME280;55168;51.120;17.024;2022-07-29T01:49:02;100370;;;15.7;64.8
68320;BME280;55168;51.120;17.024;2022-07-29T01:50:00;100370;;;15.7;64.8
68320;BME280;55168;51.120;17.024;2022-07-29T01:51:09;100370;;;15.7;65.5
68320;BME280;55168;51.120;17.024;2022-07-29T01:52:03;100380;;;15.6;65.6
68320;BME280;55168;51.120;17.024;2022-07-29T01:53:00;100370;;;15.6;65.3
68320;BME280;55168;51.120;17.024;2022-07-29T01:55:02;100370;;;15.6;65.6
68320;BME280;55168;51.120;17.024;2022-07-29T01:56:00;100370;;;15.6;65.8
68320;BME280;55168;51.120;17.024;2022-07-29T01:57:00;100370;;;15.7;65.5
68320;BME280;55168;51.120;17.024;2022-07-29T01:58:00;100370;;;15.7;65.6
68320;BME280;55168;51.120;17.024;2022-07-29T01:59:00;100360;;;15.6;65.9
68320;BME280;55168;51.120;17.024;2022-07-29T02:00:00;100360;;;15.6;65.8
68320;BME280;55168;51.120;17.024;2022-07-29T02:01:00;100370;;;15.6;66.0
68320;BME280;55168;51.120;17.024;2022-07-29T02:02:00;100360;;;15.6;66.1
68320;BME280;55168;51.120;17.024;2022-07-29T02:03:02;100360;;;15.6;66.4
68320;BME280;55168;51.120;17.024;2022-07-29T02:04:01;100360;;;15.5;66.1
68320;BME280;55168;51.120;17.024;2022-07-29T02:05:00;100360;;;15.5;66.2
68320;BME280;55168;51.120;17.024;2022-07-29T02:06:00;100360;;;15.5;66.8
68320;BME280;55168;51.120;17.024;2022-07-29T02:07:00;100350;;;15.4;66.7
68320;BME280;55168;51.120;17.024;2022-07-29T02:08:00;100360;;;15.4;66.8
68320;BME280;55168;51.120;17.024;2022-07-29T02:09:00;100350;;;15.4;66.9
68320;BME280;55168;51.120;17.024;2022-07-29T02:10:00;100350;;;15.4;67.3
68320;BME280;55168;51.120;17.024;2022-07-29T02:11:00;100350;;;15.3;unknown
68320;BME280;55168;51.120;17.024;2022-07-29T02:12:00;100350;;;15.3;67.6
68320;BME280;55168;51.120;17.024;2022-07-29T02:13:00;100360;;;15.3;67.5
68320;BME280;55168;51.120;17.024;2022-07-29T02:14:00;100350;;;15.3;67.8
68320;BME280;55168;51.120;17.024;2022-07-29T02:15:00;100350;;;15.3;67.7
68320;BME280;55168;51.120;17.024;2022-07-29T02:16:00;100350;;;15.3;68.0
68320;BME280;55168;51.120;17.024;2022-07-29T02:17:00;100350;;;15.2;68.0
68320;BME280;55168;51.120;17.024;2022-07-29T02:18:02;100350;;;15.2;68.2
68320;BME280;55168;51.120;17.024;2022-07-29T02:19:00;100350;;;15.2;68.3
68320;BME280;55168;51.120;17.024;2022-07-29T02:20:00;100350;;;15.2;68.5
68320;BME280;55168;51.120;17.024;2022-07-29T02:21:00;100350;;;15.2;68.6
68320;BME280;55168;51.120;17.024;2022-07-29T02:22:00;100350;;;15.2;68.6
68320;BME280;55168;51.120;17.024;2022-07-29T02:23:00;100350;;;15.1;68.7
68320;BME280;55168;51.120;17.024;2022-07-29T02:24:01;100350;;;15.1;69.0
68320;BME280;55168;51.120;17.024;2022-07-29T02:25:00;100350;;;15.1;69.0
68320;BME280;55168;51.120;17.024;2022-07-29T02:26:00;100350;;;15.1;69.3
68320;BME280;55168;51.120;17.024;2022-07-29T02:27:00;100350;;;15.1;69.3
68320;BME280;55168;51.120;17.024;2022-07-29T02:28:00;100350;;;15.1;69.6
68320;BME280;55168;51.120;17.024;2022-07-29T02:29:00;100360;;;15.1;69.6
68320;BME280;55168;51.120;17.024;2022-07-29T02:30:00;100350;;;15.1;69.9
68320;BME280;55168;51.120;17.024;2022-07-29T02:31:00;100350;;;15.0;70.0
68320;BME280;55168;51.120;17.024;2022-07-29T02:32:00;100350;;;15.0;69.9
68320;BME280;55168;51.120;17.024;2022-07-29T02:33:00;100350;;;15.0;70.4
68320;BME280;55168;51.120;17.024;2022-07-29T02:34:01;100350;;;15.0;70.5
68320;BME280;55168;51.120;17.024;2022-07-29T02:35:00;100350;;;15.0;70.8
68320;BME280;55168;51.120;17.024;2022-07-29T02:36:00;100350;;;15.0;70.6
68320;BME280;55168;51.120;17.024;2022-07-29T02:37:00;100360;;;15.0;70.7
68320;BME280;55168;51.120;17.024;2022-07-29T02:38:00;100350;;;15.0;70.6
68320;BME280;55168;51.120;17.024;2022-07-29T02:39:00;100360;;;15.0;70.6
68320;BME280;55168;51.120;17.024;2022-07-29T02:40:00;100360;;;15.0;70.6
68320;BME280;55168;51.120;17.024;2022-07-29T02:41:01;100360;;;15.0;70.9
68320;BME280;55168;51.120;17.024;2022-07-29T02:42:02;100350;;;14.9;70.9
68320;BME280;55168;51.120;17.024;2022-07-29T02:43:00;100350;;;14.9;71.1
68320;BME280;55168;51.120;17.024;2022-07-29T02:44:05;100360;;;14.9;71.1
68320;BME280;55168;51.120;17.024;2022-07-29T02:45:00;100360;;;14.9;71.4
68320;BME280;55168;51.120;17.024;2022-07-29T02:46:00;100350;;;14.9;71.4
68320;BME280;55168;51.120;17.024;2022-07-29T02:48:00;100360;;;14.9;71.0
68320;BME280;55168;51.120;17.024;2022-07-29T02:49:02;100360;;;14.9;71.3
68320;BME280;55168;51.120;17.024;2022-07-29T02:50:00;100360;;;14.9;71.5
68320;BME280;55168;51.120;17.024;2022-07-29T02:51:09;100350;;;14.9;71.5
68320;BME280;55168;51.120;17.024;2022-07-29T02:52:01;100360;;;14.9;71.7
68320;BME280;55168;51.120;17.024;2022-07-29T02:53:09;100350;;;14.9;71.3
68320;BME280;55168;51.120;17.024;2022-07-29T02:54:01;100360;;;14.9;71.3
68320;BME280;55168;51.120;17.024;2022-07-29T02:55:01;100350;;;14.9;71.7
68320;BME280;55168;51.120;17.024;2022-07-29T02:56:04;100350;;;14.8;71.6
68320;BME280;55168;51.120;17.024;2022-07-29T02:57:01;100350;;;14.8;72.0
68320;BME280;55168;51.120;17.024;2022-07-29T02:58:01;100350;;;14.8;71.8
68320;BME280;55168;51.120;17.024;2022-07-29T02:59:01;100350;;;14.8;72.1
68320;BME280;55168;51.120;17.024;2022-07-29T03:00:03;100350;;;14.8;71.8
68320;BME280;55168;51.120;17.024;2022-07-29T03:01:03;100350;;;14.8;72.3
68320;BME280;55168;51.120;17.024;2022-07-29T03:02:00;100350;;;14.8;71.9
68320;BME280;55168;51.120;17.024;2022-07-29T03:03:00;100350;;;14.8;71.9
68320;BME280;55168;51.120;17.024;2022-07-29T03:04:00;100350;;;14.8;71.9
68320;BME280;55168;51.120;17.024;2022-07-29T03:05:00;100360;;;14.8;71.9
68320;BME280;55168;51.120;17.024;2022-07-29T03:06:00;100360;;;14.8;72.1
68320;BME280;55168;51.120;17.024;2022-07-29T03:07:00;100360;;;14.8;72.0
68320;BME280;55168;51.120;17.024;2022-07-29T03:08:00;100360;;;14.8;72.3
68320;BME280;55168;51.120;17.024;2022-07-29T03:09:00;100360;;;14.7;72.5
68320;BME280;55168;51.120;17.024;2022-07-29T03:10:00;100360;;;14.7;72.6
68320;BME280;55168;51.120;17.024;2022-07-29T03:11:00;100360;;;14.7;72.5
68320;BME280;55168;51.120;17.024;2022-07-29T03:12:00;100360;;;14.7;72.9
68320;BME280;55168;51.120;17.024;2022-07-29T03:13:00;100360;;;14.6;73.2
68320;BME280;55168;51.120;17.024;2022-07-29T03:14:00;100350;;;14.6;73.4
68320;BME280;55168;51.120;17.024;2022-07-29T03:15:00;100360;;;14.6;73.2
68320;BME280;55168;51.120;17.024;2022-07-29T03:16:00;100360;;;14.6;73.1
68320;BME280;55168;51.120;17.024;2022-07-29T03:17:00;100360;;;14.6;73.3
68320;BME280;55168;51.120;17.024;2022-07-29T03:18:00;100350;;;14.6;73.3
68320;BME280;55168;51.120;17.024;2022-07-29T03:19:00;100360;;;14.6;73.4
68320;BME280;55168;51.120;17.024;2022-07-29T03:20:00;100360;;;14.6;73.4
68320;BME280;55168;51.120;17.024;2022-07-29T03:21:00;100360;;;14.6;73.0
68320;BME280;55168;51.120;17.024;2022-07-29T03:22:00;100360;;;14.6;73.3
68320;BME280;55168;51.120;17.024;2022-07-29T03:23:00;100360;;;14.6;73.6
68320;BME280;55168;51.120;17.024;2022-07-29T03:24:00;100360;;;14.6;73.2
68320;BME280;55168;51.120;17.024;2022-07-29T03:25:07;100360;;;14.6;73.5
68320;BME280;55168;51.120;17.024;2022-07-29T03:26:00;100360;;;14.6;73.6
68320;BME280;55168;51.120;17.024;2022-07-29T03:27:00;100360;;;14.6;73.5
68320;BME280;55168;51.120;17.024;2022-07-29T03:28:00;100360;;;14.6;73.5
68320;BME280;55168;51.120;17.024;2022-07-29T03:29:00;100360;;;14.6;73.7
68320;BME280;55168;51.120;17.024;2022-07-29T03:30:00;100360;;;14.6;73.9
68320;BME280;55168;51.120;17.024;2022-07-29T03:31:00;100360;;;14.6;74.4
68320;BME280;55168;51.120;17.024;2022-07-29T03:32:01;100360;;;14.6;74.1
68320;BME280;55168;51.120;17.024;2022-07-29T03:33:00;100370;;;14.6;74.3
68320;BME280;55168;51.120;17.024;2022-07-29T03:34:00;100360;;;14.6;74.7
68320;BME280;55168;51.120;17.024;2022-07-29T03:35:00;100370;;;14.6;74.2
68320;BME280;55168;51.120;17.024;2022-07-29T03:36:00;100370;;;14.6;74.1
68320;BME280;55168;51.120;17.024;2022-07-29T03:37:00;100360;;;14.5;74.2
68320;BME280;55168;51.120;17.024;2022-07-29T03:38:00;100360;;;14.6;73.9
68320;BME280;55168;51.120;17.024;2022-07-29T03:39:00;100360;;;14.6;74.2
68320;BME280;55168;51.120;17.024;2022-07-29T03:40:00;100370;;;14.5;74.3
68320;BME280;55168;51.120;17.024;2022-07-29T03:41:01;100360;;;14.5;74.3
68320;BME280;55168;51.120;17.024;2022-07-29T03:42:00;100360;;;14.5;74.4
68320;BME280;55168;51.120;17.024;2022-07-29T03:43:00;100360;;;14.5;74.7
68320;BME280;55168;51.120;17.024;2022-07-29T03:44:00;100370;;;14.5;74.8
68320;BME280;55168;51.120;17.024;2022-07-29T03:45:01;100370;;;14.5;74.5
68320;BME280;55168;51.120;17.024;2022-07-29T03:46:00;100370;;;14.6;74.3
68320;BME280;55168;51.120;17.024;2022-07-29T03:47:00;100370;;;14.6;74.0
68320;BME280;55168;51.120;17.024;2022-07-29T03:48:01;100370;;;14.7;74.1
68320;BME280;55168;51.120;17.024;2022-07-29T03:49:00;100370;;;14.7;73.9
68320;BME280;55168;51.120;17.024;2022-07-29T03:50:00;100370;;;14.7;73.5
68320;BME280;55168;51.120;17.024;2022-07-29T03:51:00;100380;;;14.7;73.1
68320;BME280;55168;51.120;17.024;2022-07-29T03:52:00;100370;;;14.7;73.2
68320;BME280;55168;51.120;17.024;2022-07-29T03:53:00;100380;;;14.7;73.3
68320;BME280;55168;51.120;17.024;2022-07-29T03:54:01;100370;;;14.6;73.8
68320;BME280;55168;51.120;17.024;2022-07-29T03:55:00;100380;;;14.7;73.5
68320;BME280;55168;51.120;17.024;2022-07-29T03:56:00;100380;;;14.6;74.1
68320;BME280;55168;51.120;17.024;2022-07-29T03:57:00;100380;;;14.7;74.1
68320;BME280;55168;51.120;17.024;2022-07-29T03:58:00;100380;;;14.7;74.0
68320;BME280;55168;51.120;17.024;2022-07-29T03:59:00;100380;;;14.8;73.3
68320;BME280;55168;51.120;17.024;2022-07-29T04:00:00;100370;;;14.7;73.7
68320;BME280;55168;51.120;17.024;2022-07-29T04:01:00;100370;;;14.7;74.0
68320;BME280;55168;51.120;17.024;2022-07-29T04:02:00;100370;;;14.7;74.1
68320;BME280;55168;51.120;17.024;2022-07-29T04:03:00;100370;;;14.7;74.9
68320;BME280;55168;51.120;17.024;2022-07-29T04:04:00;100370;;;14.7;75.4
68320;BME280;55168;51.120;17.024;2022-07-29T04:05:00;100370;;;14.7;75.3
68320;BME280;55168;51.120;17.024;2022-07-29T04:06:00;100380;;;14.7;73.9
68320;BME280;55168;51.120;17.024;2022-07-29T04:07:00;100380;;;14.7;73.6
68320;BME280;55168;51.120;17.024;2022-07-29T04:08:00;100380;;;14.7;73.5
68320;BME280;55168;51.120;17.024;2022-07-29T04:09:00;100380;;;14.7;74.3
68320;BME280;55168;51.120;17.024;2022-07-29T04:10:00;100380;;;14.8;73.6
68320;BME280;55168;51.120;17.024;2022-07-29T04:11:00;100380;;;14.8;74.3
68320;BME280;55168;51.120;17.024;2022-07-29T04:12:00;100380;;;14.8;74.6
68320;BME280;55168;51.120;17.024;2022-07-29T04:13:00;100380;;;14.8;74.9
68320;BME280;55168;51.120;17.024;2022-07-29T04:14:00;100380;;;14.8;73.6
68320;BME280;55168;51.120;17.024;2022-07-29T04:15:00;100380;;;14.8;73.3
68320;BME280;55168;51.120;17.024;2022-07-29T04:16:00;100380;;;14.9;73.3
68320;BME280;55168;51.120;17.024;2022-07-29T04:17:00;100380;;;14.9;72.6
68320;BME280;55168;51.120;17.024;2022-07-29T04:18:00;100380;;;14.9;72.5
68320;BME280;55168;51.120;17.024;2022-07-29T04:19:00;100380;;;14.9;72.5
68320;BME280;55168;51.120;17.024;2022-07-29T04:20:00;100380;;;14.9;72.8
68320;BME280;55168;51.120;17.024;2022-07-29T04:21:00;100380;;;14.9;72.3
68320;BME280;55168;51.120;17.024;2022-07-29T04:22:00;100370;;;15.0;72.5
68320;BME280;55168;51.120;17.024;2022-07-29T04:23:00;100380;;;15.0;72.3
68320;BME280;55168;51.120;17.024;2022-07-29T04:24:00;100380;;;14.9;72.7
68320;BME280;55168;51.120;17.024;2022-07-29T04:25:00;100380;;;15.0;73.0
68320;BME280;55168;51.120;17.024;2022-07-29T04:26:00;100380;;;15.0;72.7
68320;BME280;55168;51.120;17.024;2022-07-29T04:27:00;100380;;;15.0;72.2
68320;BME280;55168;51.120;17.024;2022-07-29T04:28:00;100380;;;15.0;72.5
68320;BME280;55168;51.120;17.024;2022-07-29T04:29:00;100370;;;15.1;73.2
68320;BME280;55168;51.120;17.024;2022-07-29T04:30:00;100370;;;15.2;71.5
68320;BME280;55168;51.120;17.024;2022-07-29T04:31:00;100370;;;15.3;70.8
68320;BME280;55168;51.120;17.024;2022-07-29T04:32:00;100370;;;15.4;71.0
68320;BME280;55168;51.120;17.024;2022-07-29T04:33:00;100370;;;15.4;71.2
68320;BME280;55168;51.120;17.024;2022-07-29T04:34:00;100370;;;15.5;70.2
68320;BME280;55168;51.120;17.024;2022-07-29T04:35:00;100370;;;15.6;69.7
68320;BME280;55168;51.120;17.024;2022-07-29T04:36:00;100370;;;15.7;69.1
68320;BME280;55168;51.120;17.024;2022-07-29T04:37:00;100370;;;15.7;69.4
68320;BME280;55168;51.120;17.024;2022-07-29T04:38:00;100370;;;15.8;68.6
68320;BME280;55168;51.120;17.024;2022-07-29T04:39:00;100370;;;15.8;68.4
68320;BME280;55168;51.120;17.024;2022-07-29T04:40:00;100370;;;15.8;68.5
68320;BME280;55168;51.120;17.024;2022-07-29T04:41:00;100370;;;15.9;67.6
68320;BME280;55168;51.120;17.024;2022-07-29T04:42:00;100370;;;15.9;67.3
68320;BME280;55168;51.120;17.024;2022-07-29T04:43:00;100370;;;16.1;67.1
68320;BME280;55168;51.120;17.024;2022-07-29T04:44:00;100370;;;16.3;66.1
68320;BME280;55168;51.120;17.024;2022-07-29T04:45:00;100370;;;16.3;66.4
68320;BME280;55168;51.120;17.024;2022-07-29T04:46:00;100370;;;16.4;66.6
68320;BME280;55168;51.120;17.024;2022-07-29T04:47:00;100370;;;16.6;64.8
68320;BME280;55168;51.120;17.024;2022-07-29T04:48:00;100370;;;16.7;64.3
68320;BME280;55168;51.120;17.024;2022-07-29T04:49:00;100370;;;16.8;64.6
68320;BME280;55168;51.120;17.024;2022-07-29T04:50:00;100370;;;16.8;63.5
68320;BME280;55168;51.120;17.024;2022-07-29T04:51:00;100370;;;16.8;64.0
68320;BME280;55168;51.120;17.024;2022-07-29T04:52:00;100370;;;17.0;63.5
68320;BME280;55168;51.120;17.024;2022-07-29T04:53:00;100370;;;17.0;63.2
68320;BME280;55168;51.120;17.024;2022-07-29T04:54:00;100370;;;17.0;64.5
68320;BME280;55168;51.120;17.024;2022-07-29T04:55:00;100370;;;17.0;62.6
68320;BME280;55168;51.120;17.024;2022-07-29T04:56:00;100370;;;16.8;63.4
68320;BME280;55168;51.120;17.024;2022-07-29T04:57:00;100370;;;17.0;63.6
68320;BME280;55168;51.120;17.024;2022-07-29T04:58:00;100360;;;17.3;62.2
68320;BME280;55168;51.120;17.024;2022-07-29T04:59:00;100370;;;17.5;60.5
68320;BME280;55168;51.120;17.024;2022-07-29T05:00:00;100370;;;17.5;61.7
68320;BME280;55168;51.120;17.024;2022-07-29T05:01:00;100370;;;17.4;61.5
68320;BME280;55168;51.120;17.024;2022-07-29T05:02:00;100370;;;17.6;61.5
68320;BME280;55168;51.120;17.024;2022-07-29T05:03:00;100370;;;17.9;59.7
68320;BME280;55168;51.120;17.024;2022-07-29T05:04:00;100360;;;17.7;58.2
68320;BME280;55168;51.120;17.024;2022-07-29T05:05:00;100370;;;17.7;59.3
68320;BME280;55168;51.120;17.024;2022-07-29T05:06:00;100370;;;17.7;59.9
68320;BME280;55168;51.120;17.024;2022-07-29T05:07:00;100370;;;17.8;59.6
68320;BME280;55168;51.120;17.024;2022-07-29T05:08:00;100370;;;17.7;57.7
68320;BME280;55168;51.120;17.024;2022-07-29T05:09:00;100370;;;17.7;59.0
68320;BME280;55168;51.120;17.024;2022-07-29T05:10:00;100380;;;17.4;60.6
68320;BME280;55168;51.120;17.024;2022-07-29T05:11:00;100370;;;17.4;60.9
68320;BME280;55168;51.120;17.024;2022-07-29T05:12:00;100370;;;17.5;61.5
68320;BME280;55168;51.120;17.024;2022-07-29T05:13:00;100370;;;17.6;60.4
68320;BME280;55168;51.120;17.024;2022-07-29T05:14:00;100360;;;17.8;59.2
68320;BME280;55168;51.120;17.024;2022-07-29T05:15:00;100360;;;17.9;59.5
68320;BME280;55168;51.120;17.024;2022-07-29T05:16:00;100370;;;18.1;58.8
68320;BME280;55168;51.120;17.024;2022-07-29T05:17:00;100360;;;18.2;58.3
68320;BME280;55168;51.120;17.024;2022-07-29T05:18:00;100360;;;18.1;58.5
68320;BME280;55168;51.120;17.024;2022-07-29T05:19:00;100370;;;18.0;59.0
68320;BME280;55168;51.120;17.024;2022-07-29T05:20:00;100370;;;17.9;59.3
68320;BME280;55168;51.120;17.024;2022-07-29T05:21:00;100370;;;17.9;59.2
68320;BME280;55168;51.120;17.024;2022-07-29T05:22:00;100370;;;18.0;59.4
68320;BME280;55168;51.120;17.024;2022-07-29T05:23:00;100380;;;18.0;59.7
68320;BME280;55168;51.120;17.024;2022-07-29T05:24:00;100380;;;18.0;59.3
68320;BME280;55168;51.120;17.024;2022-07-29T05:25:00;100370;;;17.9;59.4
68320;BME280;55168;51.120;17.024;2022-07-29T05:26:00;100370;;;17.9;59.1
68320;BME280;55168;51.120;17.024;2022-07-29T05:27:00;100370;;;17.7;60.0
68320;BME280;55168;51.120;17.024;2022-07-29T05:28:00;100370;;;17.7;60.8
68320;BME280;55168;51.120;17.024;2022-07-29T05:29:00;100370;;;17.6;59.3
68320;BME280;55168;51.120;17.024;2022-07-29T05:30:00;100370;;;17.5;60.5
68320;BME280;55168;51.120;17.024;2022-07-29T05:31:00;100370;;;17.3;61.0
68320;BME280;55168;51.120;17.024;2022-07-29T05:32:00;100370;;;17.4;62.0
68320;BME280;55168;51.120;17.024;2022-07-29T05:33:00;100370;;;17.5;61.3
68320;BME280;55168;51.120;17.024;2022-07-29T05:34:00;100370;;;17.5;61.0
68320;BME280;55168;51.120;17.024;2022-07-29T05:35:00;100380;;;17.5;61.4
68320;BME280;55168;51.120;17.024;2022-07-29T05:36:00;100380;;;17.4;61.0
68320;BME280;55168;51.120;17.024;2022-07-29T05:37:00;100370;;;17.4;61.1
68320;BME280;55168;51.120;17.024;2022-07-29T05:38:00;100380;;;17.3;62.0